Time;durP1;ratioP1;P1;durP2;ratioP2;P2;SDS_P1;SDS_P2;PMS_P1;PMS_P2;Temp;Humidity;BMP_temperature;BMP_pressure;BME280_temperature;BME280_humidity;BME280_pressure;Samples;Min_cycle;Max_cycle;Signal;HPM_P1;HPM_P2
2021/07/04 00:02:00;;;;;;;5.30;3.65;;;;;;;17.84;61.19;96028.38;5073205;28;20029;-62
2021/07/04 00:04:26;;;;;;;3.65;3.20;;;;;;;17.96;61.07;96030.09;5073515;28;20028;-60
2021/07/04 00:06:52;;;;;;;4.57;3.67;;;;;;;18.00;60.41;96023.59;5073779;28;20071;-60
2021/07/04 00:09:18;;;;;;;3.58;3.00;;;;;;;18.07;59.95;96016.06;5072959;28;20206;-60
2021/07/04 00:11:43;;;;;;;4.45;3.70;;;;;;;18.16;60.23;96015.38;5073022;28;20506;-62
2021/07/04 00:14:09;;;;;;;5.82;3.30;;;;;;;18.18;60.21;96017.88;5085067;28;20028;-60
2021/07/04 00:16:35;;;;;;;4.80;3.75;;;;;;;18.16;59.64;96020.69;5093307;28;20393;-60
2021/07/04 00:19:01;;;;;;;5.07;3.15;;;;;;;18.19;59.90;96007.19;5093248;28;20020;-62
2021/07/04 00:21:26;;;;;;;3.53;3.20;;;;;;;18.24;60.10;96004.19;5093193;28;20389;-62
2021/07/04 00:23:52;;;;;;;4.45;3.25;;;;;;;18.24;59.28;96001.53;5085597;28;20028;-62
2021/07/04 00:26:18;;;;;;;3.55;3.25;;;;;;;18.21;60.21;95998.31;5083995;28;20056;-60
2021/07/04 00:28:44;;;;;;;3.63;3.10;;;;;;;18.22;59.95;95995.53;5093127;28;20055;-60
2021/07/04 00:31:10;;;;;;;4.10;3.80;;;;;;;18.26;59.94;95999.63;5093225;28;20385;-60
2021/07/04 00:33:36;;;;;;;3.10;2.80;;;;;;;18.27;60.06;95998.66;5080248;28;20479;-60
2021/07/04 00:36:03;;;;;;;4.50;3.75;;;;;;;18.23;60.57;95999.00;5072714;28;20028;-59
2021/07/04 00:38:28;;;;;;;4.07;3.30;;;;;;;18.19;60.17;95995.78;5072812;28;20036;-59
2021/07/04 00:40:54;;;;;;;4.25;3.70;;;;;;;18.18;60.29;95999.38;5072882;28;20020;-61
2021/07/04 00:43:20;;;;;;;7.80;3.33;;;;;;;18.13;60.36;95991.81;5055193;28;20063;-61
2021/07/04 00:45:46;;;;;;;3.72;3.42;;;;;;;18.01;60.08;95987.41;5072832;28;20101;-62
2021/07/04 00:48:13;;;;;;;4.15;3.40;;;;;;;18.00;61.08;95988.41;5072686;28;20352;-62
2021/07/04 00:50:39;;;;;;;7.28;3.70;;;;;;;17.96;61.42;95993.06;5072717;28;20442;-61
2021/07/04 00:53:05;;;;;;;3.53;3.22;;;;;;;17.87;62.91;95991.97;5072740;28;20103;-61
2021/07/04 00:55:30;;;;;;;3.50;3.20;;;;;;;17.76;62.30;95986.66;5073701;28;20386;-62
2021/07/04 00:57:56;;;;;;;3.58;3.28;;;;;;;17.71;63.06;95994.09;5072638;28;20382;-62
2021/07/04 01:00:31;;;;;;;5.18;3.85;;;;;;;17.55;63.85;95987.34;5072592;28;20020;-60
2021/07/04 01:02:57;;;;;;;3.40;3.10;;;;;;;17.41;63.75;95985.72;5072673;28;20024;-60
2021/07/04 01:05:27;;;;;;;5.05;3.67;;;;;;;17.39;64.70;95987.63;5072674;28;20028;-61
2021/07/04 01:07:54;;;;;;;5.50;3.65;;;;;;;17.38;65.48;96000.00;5079890;28;20050;-61
2021/07/04 01:10:22;;;;;;;4.43;3.88;;;;;;;17.34;65.20;95995.06;5096428;28;20071;-61
2021/07/04 01:12:50;;;;;;;3.83;3.53;;;;;;;17.20;64.57;95985.50;5096464;28;20027;-60
2021/07/04 01:15:19;;;;;;;5.82;4.10;;;;;;;17.14;65.01;95987.66;5095403;28;20028;-61
2021/07/04 01:17:46;;;;;;;7.07;3.60;;;;;;;17.14;65.57;95982.38;5076386;28;20035;-60
2021/07/04 01:20:16;;;;;;;5.43;3.97;;;;;;;17.13;64.84;95980.66;5076251;28;20420;-61
2021/07/04 01:22:51;;;;;;;5.05;4.05;;;;;;;17.10;66.06;95988.81;5076260;28;20028;-62
2021/07/04 01:25:17;;;;;;;4.43;4.03;;;;;;;17.07;66.18;95988.22;5076103;28;20024;-60
2021/07/04 01:27:42;;;;;;;6.53;3.80;;;;;;;16.97;65.98;95996.75;5091801;28;20379;-60
2021/07/04 01:30:10;;;;;;;7.47;4.30;;;;;;;16.85;66.28;95990.56;5075929;28;20032;-62
2021/07/04 01:32:35;;;;;;;5.00;3.70;;;;;;;16.84;66.37;95988.03;5076040;28;20025;-59
2021/07/04 01:35:02;;;;;;;4.53;4.07;;;;;;;16.74;66.59;95988.69;5079429;28;20359;-61
2021/07/04 01:37:27;;;;;;;3.83;3.53;;;;;;;16.77;67.16;95990.28;5096268;28;20027;-60
2021/07/04 01:39:53;;;;;;;5.28;4.03;;;;;;;16.78;66.93;95999.91;5096019;28;20366;-61
2021/07/04 01:42:18;;;;;;;4.43;3.55;;;;;;;16.78;67.05;95997.25;5096297;28;20016;-60
2021/07/04 01:44:44;;;;;;;4.80;3.72;;;;;;;16.77;66.86;95996.41;5096077;28;20489;-62
2021/07/04 01:47:09;;;;;;;3.55;3.22;;;;;;;16.68;66.71;96003.19;5094073;28;20119;-60
2021/07/04 01:49:35;;;;;;;5.95;3.50;;;;;;;16.59;67.39;96003.88;5095838;28;20035;-60
2021/07/04 01:52:01;;;;;;;6.20;4.38;;;;;;;16.57;67.63;96011.03;5096058;28;20024;-59
2021/07/04 01:54:26;;;;;;;5.72;3.95;;;;;;;16.52;67.71;96010.50;5086363;28;20162;-61
2021/07/04 01:56:52;;;;;;;5.38;3.47;;;;;;;16.50;67.91;96013.25;5075801;28;20016;-62
2021/07/04 01:59:18;;;;;;;5.20;4.30;;;;;;;16.47;67.86;96008.22;5084061;28;20389;-61
2021/07/04 02:01:44;;;;;;;4.00;3.63;;;;;;;16.38;67.79;96011.50;5095699;28;20434;-62
2021/07/04 02:04:09;;;;;;;4.55;3.60;;;;;;;16.30;68.16;96009.38;5095625;28;20024;-59
2021/07/04 02:06:35;;;;;;;5.00;4.15;;;;;;;16.34;68.04;96021.41;5095499;28;20416;-60
2021/07/04 02:09:01;;;;;;;4.35;3.55;;;;;;;16.32;67.73;96017.19;5091855;28;20089;-61
2021/07/04 02:11:26;;;;;;;4.63;3.85;;;;;;;16.30;68.41;96025.22;5075227;28;20032;-62
2021/07/04 02:13:52;;;;;;;7.20;3.97;;;;;;;16.23;68.15;96018.69;5075153;28;20528;-62
2021/07/04 02:16:17;;;;;;;4.28;3.88;;;;;;;16.14;68.23;96028.09;5075134;28;20020;-62
2021/07/04 02:18:43;;;;;;;5.75;4.45;;;;;;;15.96;68.14;96035.41;5057424;28;20024;-62
2021/07/04 02:21:09;;;;;;;5.10;4.05;;;;;;;16.03;69.05;96036.72;5074296;28;20489;-60
2021/07/04 02:23:36;;;;;;;6.85;3.95;;;;;;;15.94;68.60;96032.88;5074924;28;20033;-62
2021/07/04 02:26:02;;;;;;;7.85;3.95;;;;;;;15.82;68.43;96037.19;5075145;28;20111;-61
2021/07/04 02:28:29;;;;;;;7.35;4.63;;;;;;;15.83;69.34;96038.88;5084782;28;20477;-60
2021/07/04 02:30:56;;;;;;;4.07;3.75;;;;;;;15.86;69.00;96041.31;5080482;28;20028;-61
2021/07/04 02:33:24;;;;;;;6.85;3.97;;;;;;;15.78;68.82;96046.28;5074856;28;20028;-60
2021/07/04 02:35:56;;;;;;;4.13;3.45;;;;;;;15.73;69.60;96045.72;5074749;28;20025;-60
2021/07/04 02:38:22;;;;;;;5.97;4.47;;;;;;;15.71;69.57;96039.72;5074656;28;20028;-61
2021/07/04 02:40:48;;;;;;;5.90;3.83;;;;;;;15.68;69.55;96045.19;5081603;28;20472;-61
2021/07/04 02:43:20;;;;;;;4.30;3.97;;;;;;;15.73;68.86;96046.56;5094874;28;20051;-60
2021/07/04 02:45:47;;;;;;;5.82;4.03;;;;;;;15.79;68.98;96046.16;5094984;28;20510;-61
2021/07/04 02:48:13;;;;;;;7.70;4.45;;;;;;;15.83;68.66;96043.31;5085342;28;20077;-60
2021/07/04 02:50:41;;;;;;;4.05;3.65;;;;;;;15.79;68.42;96046.16;5074498;28;20031;-60
2021/07/04 02:53:07;;;;;;;5.05;3.85;;;;;;;15.77;68.47;96037.50;5075454;28;20060;-62
2021/07/04 02:55:33;;;;;;;4.22;3.83;;;;;;;15.72;68.52;96050.16;5074483;28;20025;-61
2021/07/04 02:57:58;;;;;;;10.73;4.05;;;;;;;15.69;68.55;96047.72;5074362;28;20374;-59
2021/07/04 03:00:26;;;;;;;3.97;3.55;;;;;;;15.70;68.73;96051.19;5074149;28;20482;-62
2021/07/04 03:02:53;;;;;;;5.82;3.75;;;;;;;15.65;69.11;96055.00;5075013;28;20058;-59
2021/07/04 03:05:19;;;;;;;6.10;3.70;;;;;;;15.66;69.37;96061.94;5074190;28;20032;-59
2021/07/04 03:07:45;;;;;;;8.50;4.10;;;;;;;15.66;69.31;96059.31;5074128;28;20025;-61
2021/07/04 03:10:17;;;;;;;10.45;5.53;;;;;;;15.69;69.77;96065.31;5073801;28;20394;-60
2021/07/04 03:12:43;;;;;;;5.00;4.45;;;;;;;15.70;69.92;96065.22;5088927;28;20031;-59
2021/07/04 03:15:11;;;;;;;4.97;4.43;;;;;;;15.71;69.54;96064.28;5094235;28;20020;-60
2021/07/04 03:17:37;;;;;;;5.38;4.60;;;;;;;15.61;69.45;96069.31;5094441;28;20346;-60
2021/07/04 03:20:13;;;;;;;5.28;4.53;;;;;;;15.71;69.92;96080.09;5094027;28;20086;-62
2021/07/04 03:22:39;;;;;;;4.05;3.58;;;;;;;15.70;69.45;96083.69;5094329;28;20024;-60
2021/07/04 03:25:06;;;;;;;5.55;4.53;;;;;;;15.69;69.47;96084.63;5093211;28;20020;-60
2021/07/04 03:27:32;;;;;;;5.20;3.85;;;;;;;15.63;69.87;96088.50;5093896;28;20032;-62
2021/07/04 03:29:57;;;;;;;4.28;3.85;;;;;;;15.69;70.20;96083.78;5093980;28;20068;-62
2021/07/04 03:32:23;;;;;;;3.85;3.50;;;;;;;15.96;69.43;96083.78;5088250;28;20115;-61
2021/07/04 03:34:49;;;;;;;4.13;3.78;;;;;;;16.27;68.12;96088.75;5082558;28;20053;-62
2021/07/04 03:37:16;;;;;;;6.40;3.53;;;;;;;16.64;67.01;96080.94;5093784;28;20020;-60
2021/07/04 03:39:41;;;;;;;3.70;3.38;;;;;;;16.99;65.31;96076.75;5093813;28;20039;-62
2021/07/04 03:42:07;;;;;;;5.88;4.53;;;;;;;17.22;64.91;96081.38;5093257;28;20020;-62
2021/07/04 03:44:33;;;;;;;3.40;3.10;;;;;;;17.52;64.19;96083.56;5074704;28;20028;-61
2021/07/04 03:46:58;;;;;;;3.65;3.25;;;;;;;17.87;62.87;96087.19;5093663;28;20035;-62
2021/07/04 03:49:24;;;;;;;9.13;3.00;;;;;;;18.32;62.42;96077.72;5093552;28;20020;-63
2021/07/04 03:51:50;;;;;;;4.75;2.40;;;;;;;18.77;60.69;96086.66;5093706;28;20024;-62
2021/07/04 03:54:15;;;;;;;3.92;3.08;;;;;;;19.15;59.38;96080.13;5093584;28;20028;-63
2021/07/04 03:56:41;;;;;;;3.00;2.80;;;;;;;19.57;58.30;96090.03;5091825;28;20024;-63
2021/07/04 03:59:06;;;;;;;4.45;2.75;;;;;;;19.90;57.88;96084.72;5093394;28;20028;-62
2021/07/04 04:01:32;;;;;;;3.22;2.92;;;;;;;20.23;56.79;96091.84;5093449;28;20481;-62
2021/07/04 04:03:58;;;;;;;4.25;2.42;;;;;;;20.45;56.24;96089.03;5093370;28;20024;-61
2021/07/04 04:06:23;;;;;;;4.00;2.30;;;;;;;20.77;56.28;96083.75;5093460;28;20101;-61
2021/07/04 04:08:49;;;;;;;3.75;2.60;;;;;;;21.19;55.02;96091.59;5081260;28;20513;-62
2021/07/04 04:11:15;;;;;;;4.63;2.50;;;;;;;21.58;54.46;96084.66;5073045;28;20076;-60
2021/07/04 04:13:41;;;;;;;4.85;2.75;;;;;;;21.96;54.18;96090.16;5073202;28;20106;-62
2021/07/04 04:16:07;;;;;;;3.10;2.80;;;;;;;22.29;51.99;96082.72;5076069;28;20127;-61
2021/07/04 04:18:37;;;;;;;4.15;2.42;;;;;;;22.72;51.23;96093.00;5093361;28;20031;-62
2021/07/04 04:21:07;;;;;;;2.75;2.50;;;;;;;23.07;50.19;96090.63;5093145;28;20039;-63
2021/07/04 04:23:33;;;;;;;2.67;2.47;;;;;;;23.48;50.61;96083.09;5093105;28;20023;-61
2021/07/04 04:26:00;;;;;;;3.40;2.38;;;;;;;23.96;50.50;96084.72;5091933;28;20024;-63
2021/07/04 04:28:25;;;;;;;2.42;2.20;;;;;;;24.26;46.78;96087.16;5073021;28;20036;-64
2021/07/04 04:30:52;;;;;;;2.20;2.10;;;;;;;24.55;47.14;96088.66;5072856;28;20021;-62
2021/07/04 04:33:18;;;;;;;3.80;2.40;;;;;;;24.88;46.51;96086.22;5072948;28;20100;-63
2021/07/04 04:35:44;;;;;;;2.50;2.30;;;;;;;24.92;44.94;96092.91;5072939;28;20095;-64
2021/07/04 04:38:09;;;;;;;2.50;2.28;;;;;;;25.11;46.48;96085.66;5073089;28;20038;-61
2021/07/04 04:40:35;;;;;;;3.55;2.65;;;;;;;25.23;44.01;96080.84;5077754;28;20039;-62
2021/07/04 04:43:01;;;;;;;2.88;2.33;;;;;;;25.11;44.00;96069.59;5093441;28;20466;-65
2021/07/04 04:45:27;;;;;;;4.80;2.45;;;;;;;25.38;44.52;96073.03;5097108;28;20044;-65
2021/07/04 04:47:53;;;;;;;2.53;2.33;;;;;;;25.66;43.37;96067.44;5097140;28;20056;-65
2021/07/04 04:50:18;;;;;;;2.42;2.10;;;;;;;25.78;44.57;96072.47;5097020;28;20028;-65
2021/07/04 04:52:44;;;;;;;2.42;2.20;;;;;;;26.01;42.90;96078.00;5095241;28;20476;-66
2021/07/04 04:55:10;;;;;;;4.72;2.38;;;;;;;26.20;41.84;96079.50;5097003;28;20077;-63
2021/07/04 04:57:37;;;;;;;4.03;2.08;;;;;;;26.45;42.28;96082.19;5096897;28;20028;-62
2021/07/04 05:00:09;;;;;;;2.80;2.20;;;;;;;26.51;43.16;96085.22;5096722;28;20039;-65
2021/07/04 05:02:35;;;;;;;2.50;2.30;;;;;;;26.90;42.65;96095.16;5096893;28;20073;-63
2021/07/04 05:05:02;;;;;;;4.93;2.67;;;;;;;27.20;39.43;96098.09;5092807;28;20462;-66
2021/07/04 05:07:28;;;;;;;2.88;1.98;;;;;;;27.29;40.32;96100.75;5096669;28;20029;-64
2021/07/04 05:09:53;;;;;;;2.22;2.03;;;;;;;27.18;41.01;96093.94;5096395;28;20123;-65
2021/07/04 05:12:19;;;;;;;3.22;1.92;;;;;;;27.31;41.12;96096.88;5096706;28;20032;-62
2021/07/04 05:14:44;;;;;;;2.95;2.30;;;;;;;27.47;41.27;96098.66;5096583;28;20381;-64
2021/07/04 05:17:10;;;;;;;2.25;2.05;;;;;;;27.78;42.62;96105.03;5080709;28;20025;-61
2021/07/04 05:19:35;;;;;;;3.45;1.98;;;;;;;27.88;41.47;96110.19;5076189;28;20040;-62
2021/07/04 05:22:01;;;;;;;4.50;2.08;;;;;;;27.97;39.40;96106.44;5076120;28;20031;-64
2021/07/04 05:24:27;;;;;;;3.13;2.10;;;;;;;28.15;39.98;96113.34;5076165;28;20390;-65
2021/07/04 05:26:52;;;;;;;2.70;2.13;;;;;;;27.80;40.52;96116.44;5076048;28;20033;-62
2021/07/04 05:29:18;;;;;;;2.30;2.10;;;;;;;28.02;40.33;96116.63;5079645;28;20023;-63
2021/07/04 05:31:43;;;;;;;2.13;1.90;;;;;;;28.34;39.56;96119.25;5076109;28;20035;-61
2021/07/04 05:34:09;;;;;;;2.10;1.90;;;;;;;28.43;39.72;96112.81;5083959;28;20388;-63
2021/07/04 05:36:34;;;;;;;1.70;1.60;;;;;;;28.57;39.04;96113.00;5096186;28;20031;-63
2021/07/04 05:39:00;;;;;;;2.47;1.90;;;;;;;28.74;39.72;96111.81;5096006;28;20031;-65
2021/07/04 05:41:26;;;;;;;4.28;2.20;;;;;;;28.83;40.47;96114.44;5078487;28;20107;-65
2021/07/04 05:43:52;;;;;;;6.65;2.30;;;;;;;28.85;39.89;96113.25;5075925;28;20047;-65
2021/07/04 05:46:18;;;;;;;2.08;1.95;;;;;;;28.88;38.49;96107.50;5075737;28;20025;-63
2021/07/04 05:48:45;;;;;;;2.15;1.88;;;;;;;28.18;39.86;96113.00;5075655;28;20020;-63
2021/07/04 05:51:11;;;;;;;3.75;2.50;;;;;;;27.83;40.53;96109.88;5075521;28;20021;-63
2021/07/04 05:53:37;;;;;;;2.85;2.42;;;;;;;27.92;40.64;96116.88;5061821;28;20021;-62
2021/07/04 05:56:03;;;;;;;2.70;2.50;;;;;;;27.81;40.30;96126.16;5089749;28;20497;-65
2021/07/04 05:58:29;;;;;;;4.55;2.40;;;;;;;27.95;39.94;96119.19;5095692;28;20047;-64
2021/07/04 06:00:55;;;;;;;4.10;2.60;;;;;;;28.23;41.42;96113.28;5095571;28;20060;-67
2021/07/04 06:03:20;;;;;;;5.55;3.00;;;;;;;28.61;40.62;96122.38;5095679;28;20081;-68
2021/07/04 06:05:46;;;;;;;4.75;2.67;;;;;;;28.85;39.94;96117.78;5091362;28;20119;-66
2021/07/04 06:08:12;;;;;;;2.70;2.50;;;;;;;29.10;39.58;96125.59;5088677;28;20481;-61
2021/07/04 06:10:38;;;;;;;4.07;2.78;;;;;;;29.18;39.11;96120.13;5095365;28;20051;-65
2021/07/04 06:13:04;;;;;;;6.45;2.70;;;;;;;29.36;39.51;96126.97;5095467;28;20020;-61
2021/07/04 06:15:30;;;;;;;4.00;2.47;;;;;;;29.65;38.68;96125.28;5094220;28;20028;-65
2021/07/04 06:17:55;;;;;;;3.08;2.78;;;;;;;29.58;37.68;96121.66;5075142;28;20098;-63
2021/07/04 06:20:21;;;;;;;2.58;2.38;;;;;;;29.21;38.30;96117.06;5075278;28;20028;-65
2021/07/04 06:22:49;;;;;;;4.78;2.80;;;;;;;29.36;37.76;96119.75;5075150;28;20025;-64
2021/07/04 06:25:16;;;;;;;3.35;2.72;;;;;;;28.95;38.19;96117.56;5074989;28;20112;-61
2021/07/04 06:27:42;;;;;;;2.50;2.30;;;;;;;29.43;38.24;96125.19;5080447;28;20493;-63
2021/07/04 06:30:10;;;;;;;4.55;3.08;;;;;;;29.23;36.73;96109.63;5080757;28;20025;-63
2021/07/04 06:32:37;;;;;;;5.45;3.17;;;;;;;29.36;37.63;96110.81;5074931;28;20107;-62
2021/07/04 06:35:05;;;;;;;8.73;3.13;;;;;;;29.63;38.10;96103.09;5074858;28;20033;-60
2021/07/04 06:37:31;;;;;;;3.47;2.63;;;;;;;30.04;38.98;96098.13;5074815;28;20052;-61
2021/07/04 06:39:56;;;;;;;2.75;2.55;;;;;;;29.76;36.71;96110.47;5086001;28;20028;-63
2021/07/04 06:42:22;;;;;;;2.70;2.50;;;;;;;29.59;37.64;96110.69;5095003;28;20020;-63
2021/07/04 06:44:48;;;;;;;2.85;2.50;;;;;;;29.66;36.25;96094.63;5094879;28;20038;-61
2021/07/04 06:47:14;;;;;;;2.13;2.03;;;;;;;29.75;37.17;96096.19;5094843;28;20099;-61
2021/07/04 06:49:40;;;;;;;2.75;2.55;;;;;;;30.09;35.76;96095.66;5094735;28;20073;-61
2021/07/04 06:52:06;;;;;;;3.58;2.70;;;;;;;29.83;35.90;96089.00;5092825;28;20028;-62
2021/07/04 06:54:31;;;;;;;3.33;2.50;;;;;;;30.07;36.31;96079.69;5079253;28;20064;-62
2021/07/04 06:57:25;;;;;;;2.40;2.20;;;;;;;30.37;34.47;96086.81;5074446;28;20462;-62
2021/07/04 06:59:42;;;;;;;5.05;2.40;;;;;;;30.08;36.70;96089.44;5074197;28;20044;-63
2021/07/04 07:02:08;;;;;;;3.38;2.50;;;;;;;30.38;36.21;96081.25;5074352;28;20133;-62
2021/07/04 07:04:33;;;;;;;2.92;2.58;;;;;;;30.38;35.30;96085.78;5074949;28;20033;-63
2021/07/04 07:06:59;;;;;;;2.85;2.42;;;;;;;30.48;35.17;96075.50;5082820;28;20028;-61
2021/07/04 07:09:24;;;;;;;2.88;2.38;;;;;;;30.65;33.62;96080.59;5094123;28;20052;-61
2021/07/04 07:11:50;;;;;;;3.00;2.22;;;;;;;31.11;34.42;96081.91;5094365;28;20020;-62
2021/07/04 07:14:15;;;;;;;3.13;2.03;;;;;;;31.26;34.13;96078.22;5094469;28;20024;-61
2021/07/04 07:16:41;;;;;;;2.10;2.00;;;;;;;31.22;33.32;96068.88;5087843;28;20027;-63
2021/07/04 07:19:07;;;;;;;2.10;1.90;;;;;;;31.05;33.74;96077.31;5073799;28;20025;-62
2021/07/04 07:21:32;;;;;;;3.97;2.40;;;;;;;31.10;32.21;96079.41;5073955;28;20025;-62
2021/07/04 07:23:58;;;;;;;2.65;2.17;;;;;;;31.09;32.17;96072.34;5073984;28;20032;-61
2021/07/04 07:26:23;;;;;;;3.42;2.30;;;;;;;31.07;34.65;96069.84;5073715;28;20379;-63
2021/07/04 07:28:49;;;;;;;5.50;2.25;;;;;;;30.80;32.97;96066.16;5074703;28;20024;-60
2021/07/04 07:31:14;;;;;;;2.85;2.30;;;;;;;30.91;33.87;96056.69;5073797;28;20103;-61
2021/07/04 07:33:40;;;;;;;2.40;2.20;;;;;;;30.94;33.76;96056.28;5073718;28;20413;-60
2021/07/04 07:36:05;;;;;;;2.58;2.10;;;;;;;30.97;32.82;96053.19;5073745;28;20020;-62
2021/07/04 07:38:31;;;;;;;2.50;1.98;;;;;;;31.03;35.70;96052.38;5089728;28;20033;-62
2021/07/04 07:40:57;;;;;;;2.50;2.22;;;;;;;30.91;34.00;96054.00;5093782;28;20074;-62
2021/07/04 07:43:22;;;;;;;3.42;2.05;;;;;;;31.13;34.07;96054.72;5093263;28;20024;-61
2021/07/04 07:45:48;;;;;;;2.20;2.00;;;;;;;31.08;32.72;96040.97;5090018;28;20020;-62
2021/07/04 07:48:14;;;;;;;4.18;1.85;;;;;;;31.28;33.72;96041.06;5085475;28;20024;-62
2021/07/04 07:50:40;;;;;;;2.45;2.15;;;;;;;31.39;33.12;96042.38;5083773;28;20031;-62
2021/07/04 07:53:05;;;;;;;3.88;2.13;;;;;;;31.24;33.04;96043.31;5073112;28;20029;-62
2021/07/04 07:55:31;;;;;;;3.10;2.00;;;;;;;31.34;34.06;96039.41;5073306;28;20017;-62
2021/07/04 07:57:56;;;;;;;2.15;1.98;;;;;;;31.25;32.83;96038.78;5073159;28;20028;-62
2021/07/04 08:00:22;;;;;;;2.45;1.88;;;;;;;31.27;32.51;96039.38;5077343;28;20063;-60
2021/07/04 08:02:49;;;;;;;2.15;1.98;;;;;;;31.44;34.92;96030.94;5080820;28;20016;-61
2021/07/04 08:05:14;;;;;;;2.42;2.22;;;;;;;31.48;34.16;96040.34;5071252;28;20024;-61
2021/07/04 08:07:40;;;;;;;2.63;2.00;;;;;;;31.17;33.02;96034.38;5070997;28;20036;-63
2021/07/04 08:10:07;;;;;;;2.45;2.13;;;;;;;31.23;33.33;96040.81;5071240;28;20115;-60
2021/07/04 08:12:33;;;;;;;2.67;2.17;;;;;;;30.99;33.50;96040.31;5072491;28;20020;-63
2021/07/04 08:14:58;;;;;;;3.15;2.10;;;;;;;31.21;32.85;96034.81;5070751;28;20035;-64
2021/07/04 08:17:24;;;;;;;9.25;2.03;;;;;;;31.39;33.29;96034.25;5070797;28;20094;-61
2021/07/04 08:19:49;;;;;;;1.90;1.80;;;;;;;31.54;34.95;96031.38;5069678;28;20425;-62
2021/07/04 08:22:15;;;;;;;1.85;1.73;;;;;;;31.74;33.28;96031.44;5087760;28;20024;-62
2021/07/04 08:24:40;;;;;;;2.63;1.80;;;;;;;31.64;29.38;96031.81;5090918;28;20077;-62
2021/07/04 08:27:06;;;;;;;2.50;2.30;;;;;;;31.40;34.10;96022.44;5091025;28;20036;-62
2021/07/04 08:29:32;;;;;;;2.65;2.15;;;;;;;31.52;32.48;96025.38;5090755;28;20494;-63
2021/07/04 08:31:58;;;;;;;3.47;2.00;;;;;;;31.47;33.34;96034.09;5077781;28;20029;-62
2021/07/04 08:34:23;;;;;;;3.50;1.80;;;;;;;31.39;31.80;96023.44;5071964;28;20024;-62
2021/07/04 08:36:49;;;;;;;3.47;1.80;;;;;;;31.44;33.69;96033.66;5072869;28;20113;-62
2021/07/04 08:39:14;;;;;;;4.20;2.00;;;;;;;31.46;33.46;96032.44;5075538;28;20026;-62
2021/07/04 08:41:40;;;;;;;7.25;2.10;;;;;;;31.42;32.71;96033.84;5093027;28;20050;-63
2021/07/04 08:44:08;;;;;;;2.10;1.90;;;;;;;31.34;32.78;96034.88;5093088;28;20107;-62
2021/07/04 08:46:44;;;;;;;4.15;2.30;;;;;;;31.35;31.51;96025.75;5091209;28;20024;-61
2021/07/04 08:49:12;;;;;;;2.05;1.95;;;;;;;31.09;32.70;96024.56;5093005;28;20056;-63
2021/07/04 08:51:39;;;;;;;3.85;2.22;;;;;;;31.14;32.86;96018.56;5092959;28;20481;-61
2021/07/04 08:54:05;;;;;;;2.50;2.30;;;;;;;31.23;32.26;96019.22;5090969;28;20031;-62
2021/07/04 08:56:34;;;;;;;7.25;2.40;;;;;;;31.39;36.11;96018.06;5091554;28;20024;-61
2021/07/04 08:59:00;;;;;;;3.97;2.30;;;;;;;31.31;30.99;96005.56;5092842;28;20029;-61
2021/07/04 09:01:26;;;;;;;2.53;2.17;;;;;;;30.86;32.85;96020.34;5092824;28;20081;-61
2021/07/04 09:04:08;;;;;;;2.30;2.10;;;;;;;30.63;33.07;96020.59;5092400;28;20035;-63
2021/07/04 09:06:41;;;;;;;3.22;2.50;;;;;;;30.46;34.58;96023.59;5072739;28;20433;-62
2021/07/04 09:09:13;;;;;;;4.18;2.40;;;;;;;30.30;32.91;96011.25;5072488;28;20118;-63
2021/07/04 09:11:50;;;;;;;3.17;2.80;;;;;;;30.21;34.34;96020.50;5072692;28;20024;-61
2021/07/04 09:14:15;;;;;;;3.03;2.33;;;;;;;30.23;34.90;96016.63;5080963;28;20117;-63
2021/07/04 09:16:50;;;;;;;2.65;2.22;;;;;;;30.44;33.60;96008.66;5092767;28;20052;-62
2021/07/04 09:19:16;;;;;;;4.55;2.50;;;;;;;30.51;33.45;96023.00;5092537;28;20340;-63
2021/07/04 09:21:42;;;;;;;2.63;2.38;;;;;;;30.19;32.74;96009.09;5092785;28;20047;-62
2021/07/04 09:24:28;;;;;;;2.35;2.15;;;;;;;29.87;35.20;96007.59;5090686;28;20073;-62
2021/07/04 09:26:54;;;;;;;3.33;2.55;;;;;;;30.04;36.24;96006.47;5087476;28;20092;-63
2021/07/04 09:29:43;;;;;;;3.63;2.33;;;;;;;29.90;34.58;96006.34;5073436;28;20474;-62
2021/07/04 09:32:29;;;;;;;7.18;2.60;;;;;;;29.93;35.28;96005.13;5076049;28;20356;-61
2021/07/04 09:35:06;;;;;;;3.67;2.83;;;;;;;29.91;33.74;96005.31;5075750;28;20040;-62
2021/07/04 09:37:41;;;;;;;2.38;2.17;;;;;;;30.05;35.74;95995.50;5088139;28;20032;-62
2021/07/04 09:40:11;;;;;;;2.40;2.20;;;;;;;30.07;34.15;95996.13;5092607;28;20047;-63
2021/07/04 09:43:14;;;;;;;4.97;2.60;;;;;;;30.20;34.13;96000.81;5096105;28;20039;-61
2021/07/04 09:45:41;;;;;;;2.80;2.42;;;;;;;30.37;30.84;95992.44;5096126;28;20040;-62
2021/07/04 09:48:07;;;;;;;2.85;2.40;;;;;;;30.25;32.77;95982.19;5096047;28;20043;-61
2021/07/04 09:50:51;;;;;;;10.88;3.00;;;;;;;30.00;32.90;95977.22;5095020;28;20386;-62
2021/07/04 09:53:19;;;;;;;4.97;2.45;;;;;;;29.63;34.19;95982.72;5095950;28;20477;-61
2021/07/04 09:55:45;;;;;;;3.30;2.85;;;;;;;29.09;34.96;96000.97;5095980;28;20028;-61
2021/07/04 09:58:12;;;;;;;2.92;2.67;;;;;;;29.16;37.38;95998.34;5095854;28;20035;-63
2021/07/04 10:00:43;;;;;;;4.25;2.75;;;;;;;29.43;35.84;95990.56;5095677;28;20093;-60
2021/07/04 10:03:14;;;;;;;3.75;3.22;;;;;;;29.65;34.83;95987.91;5092898;28;20036;-61
2021/07/04 10:06:00;;;;;;;2.72;2.30;;;;;;;29.92;33.78;95988.16;5095643;28;20020;-63
2021/07/04 10:08:37;;;;;;;3.58;2.58;;;;;;;29.81;34.80;95983.25;5077155;28;20490;-63
2021/07/04 10:11:04;;;;;;;2.25;2.05;;;;;;;29.92;33.31;95992.69;5075180;28;20037;-61
2021/07/04 10:13:32;;;;;;;3.17;2.65;;;;;;;29.84;33.87;95981.03;5076229;28;20112;-62
2021/07/04 10:15:59;;;;;;;2.38;2.17;;;;;;;30.06;34.33;95980.97;5095536;28;20028;-62
2021/07/04 10:18:26;;;;;;;2.60;2.38;;;;;;;29.98;31.86;95973.06;5095349;28;20020;-61
2021/07/04 10:20:54;;;;;;;4.97;2.50;;;;;;;29.81;34.17;95991.34;5095231;28;20074;-62
2021/07/04 10:23:25;;;;;;;3.63;2.85;;;;;;;29.66;33.57;95989.56;5095499;28;20493;-62
2021/07/04 10:25:52;;;;;;;3.47;3.08;;;;;;;29.64;33.34;95980.84;5095321;28;20097;-62
2021/07/04 10:28:36;;;;;;;8.48;3.15;;;;;;;29.40;33.54;95974.78;5076469;28;20063;-63
2021/07/04 10:31:08;;;;;;;2.97;2.67;;;;;;;29.40;33.05;95974.78;5074917;28;20066;-62
2021/07/04 10:33:34;;;;;;;3.25;2.60;;;;;;;29.20;33.63;95977.28;5075054;28;20112;-61
2021/07/04 10:36:13;;;;;;;4.90;3.28;;;;;;;28.96;34.61;95972.03;5088377;28;20449;-62
2021/07/04 10:38:56;;;;;;;3.40;3.08;;;;;;;28.82;35.63;95967.47;5094958;28;20040;-62
2021/07/04 10:41:26;;;;;;;5.72;2.95;;;;;;;29.09;34.31;95951.69;5094212;28;20031;-62
2021/07/04 10:43:58;;;;;;;3.97;2.75;;;;;;;28.62;33.88;95951.91;5095060;28;20103;-61
2021/07/04 10:46:56;;;;;;;4.35;2.78;;;;;;;28.04;34.83;95961.44;5077397;28;20566;-62
2021/07/04 10:49:31;;;;;;;3.88;2.78;;;;;;;27.82;37.84;95961.31;5040874;28;20479;-61
2021/07/04 10:51:57;;;;;;;4.18;3.17;;;;;;;28.02;36.24;95959.94;5074514;28;20096;-61
2021/07/04 10:57:16;;;;;;;3.50;3.10;;;;;;;28.24;34.83;95960.91;5074498;28;20490;-61
2021/07/04 11:00:00;;;;;;;4.63;2.85;;;;;;;28.49;35.70;95950.72;5074235;28;20025;-62
2021/07/04 11:03:00;;;;;;;3.08;2.72;;;;;;;28.96;34.01;95961.25;5074208;28;20033;-61
2021/07/04 11:05:31;;;;;;;4.80;2.83;;;;;;;29.13;34.11;95961.88;5075130;28;20031;-62
2021/07/04 11:07:57;;;;;;;5.57;3.22;;;;;;;28.88;33.98;95967.56;5074117;28;20568;-61
2021/07/04 11:10:28;;;;;;;3.50;3.20;;;;;;;28.80;35.55;95964.97;5074006;28;20055;-61
2021/07/04 11:13:15;;;;;;;4.45;3.05;;;;;;;28.80;34.53;95962.28;5073838;28;20027;-62
2021/07/04 11:15:43;;;;;;;3.75;2.92;;;;;;;28.84;36.40;95960.06;5068811;28;20036;-61
2021/07/04 11:18:13;;;;;;;3.65;3.35;;;;;;;28.96;36.61;95955.06;5083673;28;20028;-62
2021/07/04 11:20:40;;;;;;;5.43;3.00;;;;;;;29.01;35.25;95956.16;5072199;28;20028;-63
2021/07/04 11:23:07;;;;;;;4.15;3.42;;;;;;;29.16;34.94;95954.47;5072204;28;20036;-62
2021/07/04 11:25:42;;;;;;;4.20;2.97;;;;;;;29.38;36.89;95949.91;5072012;28;20024;-63
2021/07/04 11:28:17;;;;;;;3.25;2.88;;;;;;;29.31;34.52;95954.41;5072747;28;20056;-62
2021/07/04 11:30:54;;;;;;;4.30;3.25;;;;;;;29.26;33.76;95949.59;5073679;28;20017;-61
2021/07/04 11:33:42;;;;;;;3.47;2.90;;;;;;;29.09;34.61;95959.75;5073703;28;20154;-61
2021/07/04 11:36:15;;;;;;;3.38;3.08;;;;;;;28.94;34.51;95965.16;5073561;28;20070;-63
2021/07/04 11:38:43;;;;;;;3.95;2.95;;;;;;;28.84;35.97;95974.31;5093860;28;20035;-63
2021/07/04 11:41:12;;;;;;;4.22;3.10;;;;;;;28.44;34.81;95963.88;5093588;28;20031;-62